Webcam Rollhalt 06

Webcam Rollhalt 24

 

+++ FLUGPLATZFEST am 26. Juli 2020 von 10.00 – 18.00 Uhr. +++

Metar - Laupheim Airfield

[Source: ADDS]
METAR
ETHL 031620Z 33007KT 9999 FEW050 BKN060 10/M02 Q1016 BLU =
AMD ETHL 030900Z 0308/0317 23007KT 9999 NSW FEW060 CANCEL 1000
TAF
AMD ETHL 030900Z 0308/0317 23007KT 9999 NSW FEW060 CANCEL 1000 =

Notice: Undefined index: sun in /homepages/1/d158740339/htdocs/joomla/modules/mod_wx/tmpl/default.php on line 13

Metar - Augsburg Airfield

[Source: ADDS]
METAR
EDMA 031620Z AUTO 32007KT 9999 // OVC071/// 11/M01 Q1016 =
EDMA 031400Z 0315/0324 27010KT 9999 FEW045 BECMG 0316/0318 34003KT
TAF
EDMA 031400Z 0315/0324 27010KT 9999 FEW045 BECMG 0316/0318 34003KT =
SR / SS: 04:52 / 17:52 UTC (Günzburg 2020-04-03)

Metar - Memmingen Airfield

[Source: ADDS]
METAR
EDJA 031620Z AUTO 34007KT 300V010 9999 // FEW063/// 10/M02 Q1016 =
EDJA 031400Z 0315/0324 30010KT CAVOK BECMG 0316/0318 VRB03KT
TAF
EDJA 031400Z 0315/0324 30010KT CAVOK BECMG 0316/0318 VRB03KT =

Notice: Undefined index: sun in /homepages/1/d158740339/htdocs/joomla/modules/mod_wx/tmpl/default.php on line 13

Metar - Neuburg/Donau Airfield

[Source: ADDS]
METAR
ETSN 031620Z 28008KT 9999 FEW050 BKN075 11/M01 Q1016 BLU =
ETSN 031600Z 0317/0402 27005KT 9999 NSW FEW020 SCT070 BY ETGL
TAF
ETSN 031600Z 0317/0402 27005KT 9999 NSW FEW020 SCT070 BY ETGL =

Notice: Undefined index: sun in /homepages/1/d158740339/htdocs/joomla/modules/mod_wx/tmpl/default.php on line 13

Metar - Stuttgart Airfield

[Source: ADDS]
METAR
EDDS 031620Z 31011KT 9999 FEW041 10/01 Q1017 NOSIG =
EDDS 031100Z 0312/0412 28007KT 9999 FEW040 BECMG 0318/0321 VRB03KT PROB30 TEMPO 0402/0407 1000 BCFG BECMG 0410/0412 07005KT
TAF
EDDS 031100Z 0312/0412 28007KT 9999 FEW040 BECMG 0318/0321 VRB03KT PROB30 TEMPO 0402/0407 1000 BCFG BECMG 0410/0412 07005KT =

Notice: Undefined index: sun in /homepages/1/d158740339/htdocs/joomla/modules/mod_wx/tmpl/default.php on line 13

Metar - Niederstetten Airfield

[Source: ADDS]
METAR
ETHN 031620Z 28011KT 9999 FEW040 BKN065 09/M00 Q1016 BLU =
AMD ETHN 030929Z 0308/0317 25005KT 9999 NSW OVC060 PROB30 0310/0317 25010KT 7000 RA BKN020 CANCEL 1000Z
TAF
AMD ETHN 030929Z 0308/0317 25005KT 9999 NSW OVC060 PROB30 0310/0317 25010KT 7000 RA BKN020 CANCEL 1000Z =

Notice: Undefined index: sun in /homepages/1/d158740339/htdocs/joomla/modules/mod_wx/tmpl/default.php on line 13